Time;durP1;ratioP1;P1;durP2;ratioP2;P2;SDS_P1;SDS_P2;PMS_P1;PMS_P2;Temp;Humidity;BMP_temperature;BMP_pressure;BME280_temperature;BME280_humidity;BME280_pressure;Samples;Min_cycle;Max_cycle;Signal;HPM_P1;HPM_P2
2021/09/26 00:00:30;;;;;;;12.47;11.20;;;;;21.50;100326.00;;;;2061863;28;20261;-55
2021/09/26 00:01:30;;;;;;;13.30;11.90;;;;;21.40;100340.00;;;;2069230;28;20218;-55
2021/09/26 00:02:30;;;;;;;12.30;11.10;;;;;21.50;100333.00;;;;2070380;28;20280;-55
2021/09/26 00:03:31;;;;;;;12.80;11.60;;;;;21.40;100333.00;;;;2069973;28;20291;-55
2021/09/26 00:04:31;;;;;;;12.53;11.33;;;;;21.40;100335.00;;;;2058766;28;20237;-55
2021/09/26 00:05:31;;;;;;;12.73;11.53;;;;;21.40;100323.00;;;;2062085;28;20234;-55
2021/09/26 00:06:32;;;;;;;12.37;11.23;;;;;21.40;100321.00;;;;2061989;28;20757;-55
2021/09/26 00:07:32;;;;;;;12.57;11.37;;;;;21.50;100325.00;;;;2062163;28;20587;-55
2021/09/26 00:08:32;;;;;;;12.57;11.37;;;;;21.50;100320.00;;;;2062464;28;20727;-55
2021/09/26 00:09:33;;;;;;;11.47;10.27;;;;;21.50;100331.00;;;;2061203;28;20214;-55
2021/09/26 00:10:33;;;;;;;12.53;11.33;;;;;21.50;100314.00;;;;2059539;28;20212;-55
2021/09/26 00:11:33;;;;;;;13.07;11.77;;;;;21.50;100322.00;;;;2061671;28;20223;-55
2021/09/26 00:12:34;;;;;;;11.70;10.60;;;;;21.50;100322.00;;;;2062059;28;20652;-55
2021/09/26 00:13:35;;;;;;;12.50;11.30;;;;;21.50;100315.00;;;;2060856;28;20242;-55
2021/09/26 00:14:36;;;;;;;13.10;10.93;;;;;21.40;100321.00;;;;2061979;28;20663;-55
2021/09/26 00:15:36;;;;;;;15.17;11.67;;;;;21.50;100319.00;;;;2061913;28;20210;-55
2021/09/26 00:16:36;;;;;;;12.47;11.13;;;;;21.50;100326.00;;;;2061668;28;20226;-55
2021/09/26 00:17:37;;;;;;;11.60;10.50;;;;;21.40;100323.00;;;;2062928;28;20238;-55
2021/09/26 00:18:37;;;;;;;11.23;10.13;;;;;21.50;100322.00;;;;2063828;28;20230;-55
2021/09/26 00:19:37;;;;;;;12.70;11.50;;;;;21.40;100325.00;;;;2062596;28;20246;-55
2021/09/26 00:20:38;;;;;;;11.00;10.00;;;;;21.50;100321.00;;;;2060931;28;20277;-55
2021/09/26 00:21:38;;;;;;;11.93;10.80;;;;;21.50;100325.00;;;;2061611;28;20211;-54
2021/09/26 00:22:38;;;;;;;11.20;10.10;;;;;21.50;100323.00;;;;2061983;28;20218;-55
2021/09/26 00:23:39;;;;;;;11.57;10.47;;;;;21.40;100319.00;;;;2061807;28;20552;-55
2021/09/26 00:24:39;;;;;;;14.23;10.80;;;;;21.30;100330.00;;;;2061730;28;20215;-55
2021/09/26 00:25:40;;;;;;;13.40;12.00;;;;;21.30;100316.00;;;;2061535;28;20223;-54
2021/09/26 00:26:41;;;;;;;13.53;10.43;;;;;21.30;100322.00;;;;2061811;28;20229;-55
2021/09/26 00:27:41;;;;;;;11.15;9.95;;;;;21.40;100318.00;;;;2061784;28;20229;-56
2021/09/26 00:28:42;;;;;;;10.40;9.50;;;;;21.40;100330.00;;;;2068617;28;20273;-55
2021/09/26 00:29:42;;;;;;;13.80;10.97;;;;;21.50;100326.00;;;;2069602;28;20297;-55
2021/09/26 00:30:42;;;;;;;11.33;9.80;;;;;21.50;100326.00;;;;2070143;28;20214;-55
2021/09/26 00:31:42;;;;;;;12.87;10.37;;;;;21.50;100325.00;;;;2069581;28;20225;-55
2021/09/26 00:32:44;;;;;;;10.33;9.30;;;;;21.50;100319.00;;;;2070254;28;20217;-55
2021/09/26 00:33:44;;;;;;;13.38;10.30;;;;;21.50;100326.00;;;;2070227;28;20202;-55
2021/09/26 00:34:45;;;;;;;11.23;9.40;;;;;21.50;100332.00;;;;2069288;28;20603;-58
2021/09/26 00:35:45;;;;;;;10.23;8.87;;;;;21.50;100334.00;;;;2067099;28;20210;-58
2021/09/26 00:36:45;;;;;;;10.70;9.60;;;;;21.50;100324.00;;;;2062433;28;20210;-55
2021/09/26 00:37:46;;;;;;;10.00;9.00;;;;;21.50;100323.00;;;;2062232;28;20294;-55
2021/09/26 00:38:46;;;;;;;9.70;8.80;;;;;21.50;100317.00;;;;2061055;28;20218;-55
2021/09/26 00:39:46;;;;;;;9.87;8.87;;;;;21.40;100325.00;;;;2061541;28;20595;-55
2021/09/26 00:40:47;;;;;;;9.40;8.43;;;;;21.40;100322.00;;;;2062409;28;20688;-55
2021/09/26 00:41:48;;;;;;;9.77;8.77;;;;;21.40;100323.00;;;;2062399;28;20257;-55
2021/09/26 00:42:49;;;;;;;8.90;7.97;;;;;21.40;100315.00;;;;2062325;28;20497;-55
2021/09/26 00:43:49;;;;;;;8.83;7.90;;;;;21.40;100317.00;;;;2062149;28;20210;-55
2021/09/26 00:44:49;;;;;;;10.40;9.33;;;;;21.40;100315.00;;;;2062355;28;20214;-55
2021/09/26 00:45:50;;;;;;;8.53;7.83;;;;;21.40;100317.00;;;;2062346;28;20207;-55
2021/09/26 00:46:51;;;;;;;9.53;8.67;;;;;21.40;100319.00;;;;2062079;28;20222;-55
2021/09/26 00:47:52;;;;;;;9.32;8.35;;;;;21.40;100323.00;;;;2062919;28;20772;-55
2021/09/26 00:48:52;;;;;;;10.83;9.03;;;;;21.40;100326.00;;;;2062291;28;20214;-55
2021/09/26 00:49:53;;;;;;;9.00;8.10;;;;;21.40;100320.00;;;;2063544;28;20219;-55
2021/09/26 00:50:53;;;;;;;9.13;8.23;;;;;21.40;100322.00;;;;2061990;28;20586;-56
2021/09/26 00:51:53;;;;;;;8.73;7.83;;;;;21.40;100320.00;;;;2055223;28;20207;-55
2021/09/26 00:52:54;;;;;;;8.80;8.00;;;;;21.40;100318.00;;;;2055244;28;20211;-55
2021/09/26 00:53:54;;;;;;;8.50;7.57;;;;;21.40;100313.00;;;;2063155;28;20215;-55
2021/09/26 00:54:55;;;;;;;8.70;7.90;;;;;21.40;100321.00;;;;2070628;28;20215;-55
2021/09/26 00:55:58;;;;;;;8.20;7.40;;;;;21.40;100322.00;;;;2070689;28;20214;-55
2021/09/26 00:56:58;;;;;;;9.25;8.35;;;;;21.40;100324.00;;;;2071787;28;20229;-55
2021/09/26 00:57:59;;;;;;;9.93;7.53;;;;;21.40;100320.00;;;;2070435;28;20218;-54
2021/09/26 00:58:59;;;;;;;10.00;8.07;;;;;21.40;100317.00;;;;2069125;28;20244;-55
2021/09/26 00:59:59;;;;;;;8.70;7.80;;;;;21.40;100313.00;;;;2071517;28;20558;-55
2021/09/26 01:01:00;;;;;;;8.50;7.70;;;;;21.40;100310.00;;;;2071880;28;20218;-55
2021/09/26 01:02:00;;;;;;;8.33;7.53;;;;;21.40;100322.00;;;;2069513;28;20226;-55
2021/09/26 01:03:01;;;;;;;8.93;8.03;;;;;21.40;100306.00;;;;2070963;28;20687;-55
2021/09/26 01:04:01;;;;;;;8.90;8.10;;;;;21.40;100302.00;;;;2071151;28;20218;-55
2021/09/26 01:05:03;;;;;;;9.63;7.70;;;;;21.40;100314.00;;;;2071210;28;20214;-55
2021/09/26 01:06:12;;;;;;;8.13;7.32;;;;;21.40;100304.00;;;;2070820;28;20222;-55
2021/09/26 01:07:20;;;;;;;7.93;7.22;;;;;21.40;100302.00;;;;2071429;28;20226;-55
2021/09/26 01:08:27;;;;;;;7.18;6.57;;;;;21.40;100300.00;;;;2059362;28;20215;-56
2021/09/26 01:09:59;;;;;;;8.02;7.30;;;;;21.40;100298.00;;;;2061534;28;20238;-55
2021/09/26 01:11:18;;;;;;;8.32;7.40;;;;;21.40;100301.00;;;;2059238;28;20629;-55
2021/09/26 01:12:28;;;;;;;8.70;7.80;;;;;21.40;100298.00;;;;2049175;28;20270;-55
2021/09/26 01:13:52;;;;;;;7.82;7.13;;;;;21.40;100296.00;;;;2047576;28;20212;-55
2021/09/26 01:15:00;;;;;;;8.55;6.97;;;;;21.40;100300.00;;;;2056516;28;20791;-55
2021/09/26 01:16:30;;;;;;;7.50;6.55;;;;;21.40;100301.00;;;;2055769;28;20626;-55
2021/09/26 01:17:38;;;;;;;7.50;6.80;;;;;21.40;100300.00;;;;2060050;28;20685;-55
2021/09/26 01:18:52;;;;;;;8.23;7.43;;;;;21.40;100297.00;;;;2062654;28;20482;-55
2021/09/26 01:20:04;;;;;;;8.05;7.25;;;;;21.40;100299.00;;;;2056321;28;20214;-55
2021/09/26 01:21:35;;;;;;;7.78;7.07;;;;;21.40;100304.00;;;;2056269;28;20211;-55
2021/09/26 01:22:38;;;;;;;7.97;7.28;;;;;21.40;100297.00;;;;2062408;28;20214;-55
2021/09/26 01:24:06;;;;;;;7.10;6.50;;;;;21.40;100301.00;;;;2063174;28;20219;-56
2021/09/26 01:25:10;;;;;;;8.45;7.57;;;;;21.40;100297.00;;;;2062881;28;20778;-56
2021/09/26 01:26:22;;;;;;;7.25;6.55;;;;;21.40;100296.00;;;;2062371;28;20688;-55
2021/09/26 01:27:53;;;;;;;7.55;6.88;;;;;21.40;100291.00;;;;2062233;28;20226;-58
2021/09/26 01:28:56;;;;;;;7.43;6.80;;;;;21.40;100302.00;;;;2060667;28;20781;-57
2021/09/26 01:30:34;;;;;;;8.18;7.43;;;;;21.40;100295.00;;;;2061975;28;20218;-55
2021/09/26 01:31:36;;;;;;;7.70;7.00;;;;;21.40;100300.00;;;;2062409;28;20199;-55
2021/09/26 01:32:37;;;;;;;7.40;6.80;;;;;21.40;100288.00;;;;2052900;28;20219;-56
2021/09/26 01:33:48;;;;;;;7.50;6.80;;;;;21.40;100291.00;;;;2054367;28;20215;-56
2021/09/26 01:34:50;;;;;;;7.47;6.70;;;;;21.30;100293.00;;;;2069466;28;20762;-55
2021/09/26 01:35:55;;;;;;;7.10;6.50;;;;;21.40;100289.00;;;;2061817;28;20211;-55
2021/09/26 01:37:00;;;;;;;6.90;6.35;;;;;21.40;100296.00;;;;2052717;28;20215;-55
2021/09/26 01:38:08;;;;;;;6.28;5.70;;;;;21.40;100294.00;;;;2055215;28;20215;-55
2021/09/26 01:39:29;;;;;;;7.00;6.40;;;;;21.30;100284.00;;;;2068053;28;20221;-55
2021/09/26 01:41:03;;;;;;;7.95;7.20;;;;;21.40;100292.00;;;;2060693;28;20305;-55
2021/09/26 01:42:10;;;;;;;7.03;6.32;;;;;21.40;100292.00;;;;2061406;28;20286;-55
2021/09/26 01:43:13;;;;;;;6.88;6.28;;;;;21.40;100264.00;;;;2061740;28;20687;-55
2021/09/26 01:44:24;;;;;;;6.60;6.00;;;;;21.40;100297.00;;;;2054174;28;20850;-56
2021/09/26 01:45:45;;;;;;;7.18;6.25;;;;;21.40;100297.00;;;;2058854;28;20297;-55
2021/09/26 01:46:48;;;;;;;6.90;6.30;;;;;21.40;100296.00;;;;2061199;28;20871;-56
2021/09/26 01:47:56;;;;;;;6.40;5.90;;;;;21.40;100298.00;;;;2055437;28;20277;-55
2021/09/26 01:49:05;;;;;;;8.98;6.55;;;;;21.20;100305.00;;;;2054715;28;20546;-55
2021/09/26 01:50:07;;;;;;;7.60;6.07;;;;;21.40;100296.00;;;;2055076;28;20220;-56
2021/09/26 01:51:08;;;;;;;6.90;6.10;;;;;21.40;100301.00;;;;2045574;28;20220;-55
2021/09/26 01:52:13;;;;;;;6.60;6.00;;;;;21.40;100290.00;;;;2035116;28;20220;-55
2021/09/26 01:53:13;;;;;;;6.30;5.80;;;;;21.40;100302.00;;;;2047223;28;20232;-56
2021/09/26 01:54:16;;;;;;;6.53;6.03;;;;;21.40;100293.00;;;;2054087;28;20622;-56
2021/09/26 01:55:16;;;;;;;6.72;6.13;;;;;21.40;100298.00;;;;2062058;28;20302;-55
2021/09/26 01:56:16;;;;;;;6.50;5.90;;;;;21.40;100298.00;;;;2062262;28;20238;-55
2021/09/26 01:57:20;;;;;;;7.17;6.57;;;;;21.40;100300.00;;;;2062039;28;20207;-55
2021/09/26 01:58:21;;;;;;;6.60;6.00;;;;;21.40;100294.00;;;;2054678;28;20242;-55
2021/09/26 01:59:22;;;;;;;7.45;5.90;;;;;21.40;100301.00;;;;2053760;28;20306;-55
2021/09/26 02:00:22;;;;;;;6.67;5.70;;;;;21.40;100288.00;;;;2060697;28;20219;-55
2021/09/26 02:01:23;;;;;;;6.37;5.80;;;;;21.40;100292.00;;;;2056588;28;20223;-55
2021/09/26 02:02:24;;;;;;;6.30;5.70;;;;;21.40;100288.00;;;;2061423;28;20753;-55
2021/09/26 02:03:24;;;;;;;6.57;5.97;;;;;21.40;100297.00;;;;2062065;28;20779;-56
2021/09/26 02:04:25;;;;;;;5.83;5.33;;;;;21.40;100290.00;;;;2062814;28;20221;-55
2021/09/26 02:05:25;;;;;;;6.37;5.87;;;;;21.40;100294.00;;;;2062117;28;20599;-55
2021/09/26 02:06:25;;;;;;;6.70;6.00;;;;;21.40;100293.00;;;;2061749;28;20238;-55
2021/09/26 02:07:29;;;;;;;6.17;5.67;;;;;21.40;100290.00;;;;2062978;28;20579;-55
2021/09/26 02:08:30;;;;;;;5.93;5.43;;;;;21.40;100292.00;;;;2053609;28;20215;-57
2021/09/26 02:09:30;;;;;;;5.97;5.47;;;;;21.40;100287.00;;;;2053256;28;20219;-55
2021/09/26 02:10:30;;;;;;;6.30;5.80;;;;;21.40;100286.00;;;;2062246;28;20609;-56
2021/09/26 02:11:31;;;;;;;7.13;5.97;;;;;21.40;100278.00;;;;2054625;28;20298;-56
2021/09/26 02:12:31;;;;;;;6.27;5.77;;;;;21.30;100285.00;;;;2061880;28;20221;-55
2021/09/26 02:13:32;;;;;;;5.73;5.33;;;;;21.40;100284.00;;;;2062768;28;20223;-55
2021/09/26 02:14:33;;;;;;;5.80;5.23;;;;;21.40;100285.00;;;;2053882;28;20298;-55
2021/09/26 02:15:33;;;;;;;6.17;5.67;;;;;21.40;100281.00;;;;2046623;28;20476;-55
2021/09/26 02:16:34;;;;;;;6.20;5.70;;;;;21.40;100283.00;;;;2046150;28;20232;-55
2021/09/26 02:17:36;;;;;;;6.20;5.70;;;;;21.40;100283.00;;;;2054400;28;20947;-55
2021/09/26 02:18:37;;;;;;;5.90;5.40;;;;;21.40;100285.00;;;;2046485;28;20634;-55
2021/09/26 02:19:37;;;;;;;5.60;5.20;;;;;21.40;100290.00;;;;2044893;28;20216;-56
2021/09/26 02:20:38;;;;;;;6.20;5.60;;;;;21.40;100288.00;;;;2046152;28;21008;-55
2021/09/26 02:21:38;;;;;;;6.50;5.90;;;;;21.40;100290.00;;;;2045969;28;20216;-55
2021/09/26 02:22:39;;;;;;;6.17;5.60;;;;;21.40;100284.00;;;;2054168;28;20226;-55
2021/09/26 02:23:39;;;;;;;5.57;5.07;;;;;21.40;100286.00;;;;2046419;28;20263;-55
2021/09/26 02:24:39;;;;;;;5.50;5.00;;;;;21.40;100281.00;;;;2054389;28;20216;-55
2021/09/26 02:25:40;;;;;;;6.33;5.80;;;;;21.40;100279.00;;;;2076443;28;20276;-55
2021/09/26 02:26:40;;;;;;;6.33;5.83;;;;;21.40;100284.00;;;;2070550;28;20230;-55
2021/09/26 02:27:41;;;;;;;6.17;5.57;;;;;21.40;100285.00;;;;2070287;28;20779;-56
2021/09/26 02:28:41;;;;;;;5.63;5.10;;;;;21.40;100276.00;;;;2062095;28;20596;-55
2021/09/26 02:29:42;;;;;;;6.40;5.00;;;;;21.40;100280.00;;;;2058590;28;20830;-55
2021/09/26 02:30:42;;;;;;;5.57;5.07;;;;;21.40;100282.00;;;;2063258;28;20210;-55
2021/09/26 02:31:42;;;;;;;5.97;5.47;;;;;21.40;100281.00;;;;2062418;28;20227;-55
2021/09/26 02:32:43;;;;;;;5.77;5.30;;;;;21.40;100287.00;;;;2062685;28;20591;-55
2021/09/26 02:33:46;;;;;;;6.20;5.70;;;;;21.40;100281.00;;;;2062913;28;20210;-55
2021/09/26 02:34:46;;;;;;;5.90;5.40;;;;;21.40;100285.00;;;;2062279;28;20249;-55
2021/09/26 02:35:47;;;;;;;5.07;4.60;;;;;21.40;100281.00;;;;2062402;28;20214;-55
2021/09/26 02:36:47;;;;;;;6.03;5.53;;;;;21.40;100282.00;;;;2062483;28;20211;-56
2021/09/26 02:37:47;;;;;;;5.47;5.07;;;;;21.40;100276.00;;;;2058729;28;20202;-55
2021/09/26 02:38:48;;;;;;;5.57;5.17;;;;;21.40;100282.00;;;;2061662;28;21053;-55
2021/09/26 02:39:48;;;;;;;6.03;5.53;;;;;21.40;100292.00;;;;2051263;28;20219;-55
2021/09/26 02:40:50;;;;;;;5.17;4.77;;;;;21.40;100283.00;;;;2054112;28;20267;-55
2021/09/26 02:42:04;;;;;;;5.35;4.85;;;;;21.40;100286.00;;;;2062072;28;20215;-55
2021/09/26 02:43:33;;;;;;;5.65;5.15;;;;;21.40;100290.00;;;;2061187;28;20305;-56
2021/09/26 02:44:39;;;;;;;5.80;5.30;;;;;21.40;100288.00;;;;2054085;28;20216;-55
2021/09/26 02:45:46;;;;;;;5.78;5.32;;;;;21.40;100297.00;;;;2054205;28;20723;-56
2021/09/26 02:46:47;;;;;;;5.32;4.93;;;;;21.40;100286.00;;;;2062161;28;20766;-55
2021/09/26 02:47:56;;;;;;;5.25;4.85;;;;;21.40;100293.00;;;;2059791;28;20242;-55
2021/09/26 02:48:56;;;;;;;6.00;5.50;;;;;21.40;100289.00;;;;2057394;28;20214;-55
2021/09/26 02:49:57;;;;;;;5.57;5.07;;;;;21.40;100288.00;;;;2053662;28;20219;-55
2021/09/26 02:50:57;;;;;;;5.70;5.20;;;;;21.40;100292.00;;;;2049198;28;20291;-55
2021/09/26 02:51:58;;;;;;;5.53;5.03;;;;;21.40;100292.00;;;;2061317;28;20277;-55
2021/09/26 02:52:58;;;;;;;5.20;4.80;;;;;21.40;100294.00;;;;2066255;28;20682;-56
2021/09/26 02:53:59;;;;;;;5.80;5.20;;;;;21.40;100298.00;;;;2070122;28;20214;-56
2021/09/26 02:54:59;;;;;;;5.20;4.70;;;;;21.40;100288.00;;;;2054097;28;21110;-56
2021/09/26 02:56:00;;;;;;;5.10;4.70;;;;;21.40;100291.00;;;;2054239;28;20231;-55
2021/09/26 02:57:00;;;;;;;5.90;5.40;;;;;21.40;100289.00;;;;2062052;28;20691;-55
2021/09/26 02:58:01;;;;;;;4.83;4.43;;;;;21.40;100263.00;;;;2061642;28;20231;-55
2021/09/26 02:59:02;;;;;;;5.87;5.23;;;;;21.40;100295.00;;;;2060558;28;20259;-55
2021/09/26 03:00:04;;;;;;;4.85;4.47;;;;;21.40;100288.00;;;;2062065;28;20246;-55
2021/09/26 03:01:05;;;;;;;5.40;5.00;;;;;21.40;100292.00;;;;2062408;28;20223;-56
2021/09/26 03:02:05;;;;;;;5.83;5.37;;;;;21.40;100290.00;;;;2070302;28;20218;-55
2021/09/26 03:03:13;;;;;;;5.40;4.90;;;;;21.40;100294.00;;;;2070388;28;20222;-55
2021/09/26 03:04:14;;;;;;;5.40;4.90;;;;;21.40;100295.00;;;;2067754;28;20714;-55
2021/09/26 03:05:15;;;;;;;5.13;4.70;;;;;21.40;100299.00;;;;2070124;28;20218;-55
2021/09/26 03:06:16;;;;;;;5.30;4.85;;;;;21.40;100289.00;;;;2053883;28;20208;-56
2021/09/26 03:07:16;;;;;;;4.97;4.57;;;;;21.40;100253.00;;;;2062109;28;20211;-56
2021/09/26 03:08:17;;;;;;;5.40;4.90;;;;;21.40;100277.00;;;;2070276;28;20578;-55
2021/09/26 03:09:17;;;;;;;5.43;4.93;;;;;21.40;100278.00;;;;2055227;28;20218;-55
2021/09/26 03:10:18;;;;;;;5.20;4.77;;;;;21.40;100281.00;;;;2053928;28;20207;-55
2021/09/26 03:11:18;;;;;;;5.27;4.77;;;;;21.40;100278.00;;;;2067323;28;20253;-55
2021/09/26 03:12:20;;;;;;;5.17;4.77;;;;;21.40;100281.00;;;;2069565;28;20281;-55
2021/09/26 03:13:20;;;;;;;4.88;4.47;;;;;21.30;100273.00;;;;2069574;28;20257;-55
2021/09/26 03:14:20;;;;;;;4.83;4.50;;;;;21.40;100283.00;;;;2070493;28;20214;-55
2021/09/26 03:15:21;;;;;;;5.23;4.73;;;;;21.40;100272.00;;;;2062461;28;20266;-56
2021/09/26 03:16:21;;;;;;;5.10;4.70;;;;;21.40;100276.00;;;;2061831;28;20595;-55
2021/09/26 03:17:22;;;;;;;5.57;4.97;;;;;21.40;100284.00;;;;2059902;28;20211;-55
2021/09/26 03:18:22;;;;;;;5.10;4.70;;;;;21.40;100280.00;;;;2056618;28;20208;-55
2021/09/26 03:19:22;;;;;;;5.30;4.90;;;;;21.40;100288.00;;;;2057513;28;20875;-55
2021/09/26 03:20:23;;;;;;;4.90;4.50;;;;;21.40;100280.00;;;;2062875;28;20305;-55
2021/09/26 03:21:23;;;;;;;5.50;5.10;;;;;21.40;100281.00;;;;2061865;28;20309;-55
2021/09/26 03:22:24;;;;;;;5.40;5.00;;;;;21.40;100288.00;;;;2062212;28;20219;-55
2021/09/26 03:23:24;;;;;;;5.30;4.80;;;;;21.40;100276.00;;;;2062370;28;20211;-55
2021/09/26 03:24:24;;;;;;;5.00;4.60;;;;;21.40;100280.00;;;;2062108;28;20210;-55
2021/09/26 03:25:25;;;;;;;5.33;4.93;;;;;21.40;100281.00;;;;2062192;28;20215;-55
2021/09/26 03:26:25;;;;;;;5.03;4.63;;;;;21.40;100276.00;;;;2062082;28;20286;-55
2021/09/26 03:27:25;;;;;;;5.07;4.67;;;;;21.40;100276.00;;;;2060827;28;20226;-55
2021/09/26 03:28:26;;;;;;;4.70;4.40;;;;;21.40;100273.00;;;;2061986;28;20228;-55
2021/09/26 03:29:26;;;;;;;5.50;5.10;;;;;21.40;100268.00;;;;2060579;28;20219;-56
2021/09/26 03:30:26;;;;;;;5.73;5.13;;;;;21.40;100279.00;;;;2062389;28;20302;-56
2021/09/26 03:31:27;;;;;;;5.00;4.60;;;;;21.40;100269.00;;;;2061913;28;20274;-55
2021/09/26 03:32:27;;;;;;;4.50;4.10;;;;;21.40;100269.00;;;;2061175;28;20802;-55
2021/09/26 03:33:27;;;;;;;5.60;5.10;;;;;21.40;100265.00;;;;2065243;28;20297;-55
2021/09/26 03:34:28;;;;;;;4.70;4.30;;;;;21.40;100264.00;;;;2061962;28;20660;-55
2021/09/26 03:35:29;;;;;;;5.47;5.07;;;;;21.40;100265.00;;;;2061670;28;20203;-55
2021/09/26 03:36:29;;;;;;;5.00;4.60;;;;;21.40;100264.00;;;;2062327;28;20218;-55
2021/09/26 03:37:30;;;;;;;5.10;4.70;;;;;21.40;100257.00;;;;2061858;28;20493;-56
2021/09/26 03:38:30;;;;;;;4.40;4.10;;;;;21.40;100263.00;;;;2062067;28;20608;-56
2021/09/26 03:39:31;;;;;;;4.90;4.50;;;;;21.40;100260.00;;;;2060300;28;20293;-55
2021/09/26 03:40:31;;;;;;;5.03;4.63;;;;;21.40;100259.00;;;;2062259;28;20230;-55
2021/09/26 03:41:32;;;;;;;4.87;4.47;;;;;21.40;100263.00;;;;2062384;28;22761;-55
2021/09/26 03:42:32;;;;;;;4.87;4.47;;;;;21.40;100250.00;;;;2062366;28;20310;-55
2021/09/26 03:43:32;;;;;;;4.83;4.43;;;;;21.40;100261.00;;;;2063444;28;20650;-55
2021/09/26 03:44:33;;;;;;;5.10;4.70;;;;;21.40;100260.00;;;;2070641;28;20309;-55
2021/09/26 03:45:33;;;;;;;4.93;4.53;;;;;21.40;100253.00;;;;2070612;28;20226;-56
2021/09/26 03:46:34;;;;;;;5.13;4.73;;;;;21.40;100251.00;;;;2070537;28;20435;-55
2021/09/26 03:47:34;;;;;;;4.90;4.50;;;;;21.40;100257.00;;;;2070298;28;20225;-55
2021/09/26 03:48:35;;;;;;;4.33;4.03;;;;;21.40;100261.00;;;;2070242;28;20210;-56
2021/09/26 03:49:35;;;;;;;4.87;4.47;;;;;21.40;100254.00;;;;2068935;28;20218;-55
2021/09/26 03:50:36;;;;;;;4.43;4.10;;;;;21.40;100266.00;;;;2070571;28;20214;-55
2021/09/26 03:51:37;;;;;;;4.80;4.37;;;;;21.40;100261.00;;;;2070576;28;20222;-54
2021/09/26 03:52:37;;;;;;;5.10;4.70;;;;;21.40;100262.00;;;;2068989;28;20937;-55
2021/09/26 03:53:37;;;;;;;4.60;4.20;;;;;21.40;100265.00;;;;2070665;28;20242;-55
2021/09/26 03:54:38;;;;;;;4.67;4.30;;;;;21.40;100227.00;;;;2070127;28;20592;-55
2021/09/26 03:55:38;;;;;;;5.20;4.70;;;;;21.40;100266.00;;;;2070457;28;20297;-55
2021/09/26 03:56:39;;;;;;;4.50;4.10;;;;;21.40;100253.00;;;;2068716;28;20640;-55
2021/09/26 03:57:39;;;;;;;4.53;4.23;;;;;21.40;100257.00;;;;2064470;28;20218;-55
2021/09/26 03:58:40;;;;;;;4.30;4.00;;;;;21.40;100257.00;;;;2061877;28;20218;-55
2021/09/26 03:59:40;;;;;;;4.67;4.27;;;;;21.40;100258.00;;;;2061422;28;20215;-55
2021/09/26 04:00:40;;;;;;;4.37;4.07;;;;;21.40;100256.00;;;;2062430;28;20273;-55
2021/09/26 04:01:41;;;;;;;4.73;4.33;;;;;21.40;100259.00;;;;2062479;28;20226;-56
2021/09/26 04:02:41;;;;;;;5.30;4.90;;;;;21.40;100263.00;;;;2062451;28;20289;-55
2021/09/26 04:03:41;;;;;;;4.57;4.17;;;;;21.40;100256.00;;;;2061568;28;20683;-55
2021/09/26 04:04:42;;;;;;;4.93;4.53;;;;;21.40;100260.00;;;;2060697;28;20219;-55
2021/09/26 04:05:42;;;;;;;4.70;4.30;;;;;21.40;100255.00;;;;2062429;28;20660;-55
2021/09/26 04:06:44;;;;;;;4.33;4.03;;;;;21.40;100267.00;;;;2061592;28;20560;-56
2021/09/26 04:07:45;;;;;;;5.38;4.97;;;;;21.40;100264.00;;;;2061360;28;20222;-55
2021/09/26 04:08:46;;;;;;;4.70;4.30;;;;;21.40;100265.00;;;;2060523;28;20215;-56
2021/09/26 04:09:46;;;;;;;4.53;4.13;;;;;21.40;100263.00;;;;2057157;28;20218;-57
2021/09/26 04:10:47;;;;;;;4.13;3.83;;;;;21.40;100267.00;;;;2062380;28;20672;-55
2021/09/26 04:11:47;;;;;;;4.40;4.10;;;;;21.40;100259.00;;;;2061973;28;20560;-55
2021/09/26 04:12:47;;;;;;;4.93;4.43;;;;;21.40;100259.00;;;;2062193;28;20207;-55
2021/09/26 04:13:48;;;;;;;4.83;4.43;;;;;21.40;100269.00;;;;2062561;28;20218;-56
2021/09/26 04:14:48;;;;;;;5.33;4.90;;;;;21.40;100261.00;;;;2062401;28;20221;-55
2021/09/26 04:15:48;;;;;;;4.70;4.30;;;;;21.40;100253.00;;;;2061598;28;20612;-55
2021/09/26 04:16:50;;;;;;;4.90;4.50;;;;;21.40;100266.00;;;;2062187;28;20210;-55
2021/09/26 04:17:50;;;;;;;4.47;4.07;;;;;21.40;100264.00;;;;2062289;28;20258;-56
2021/09/26 04:18:50;;;;;;;4.60;4.30;;;;;21.40;100261.00;;;;2060495;28;20294;-56
2021/09/26 04:19:51;;;;;;;4.90;4.53;;;;;21.40;100265.00;;;;2061689;28;20215;-55
2021/09/26 04:20:51;;;;;;;4.80;4.40;;;;;21.40;100264.00;;;;2062136;28;20759;-55
2021/09/26 04:21:51;;;;;;;4.67;4.10;;;;;21.40;100266.00;;;;2062459;28;20665;-55
2021/09/26 04:22:52;;;;;;;4.67;4.27;;;;;21.40;100260.00;;;;2061437;28;20218;-55
2021/09/26 04:23:52;;;;;;;4.17;3.87;;;;;21.40;100270.00;;;;2070056;28;20577;-55
2021/09/26 04:24:53;;;;;;;4.67;4.13;;;;;21.40;100262.00;;;;2070467;28;20321;-55
2021/09/26 04:25:53;;;;;;;4.97;4.57;;;;;21.40;100262.00;;;;2070405;28;20260;-55
2021/09/26 04:26:53;;;;;;;4.13;3.83;;;;;21.40;100256.00;;;;2069360;28;20214;-56
2021/09/26 04:27:57;;;;;;;4.10;3.70;;;;;21.40;100256.00;;;;2069625;28;20690;-55
2021/09/26 04:28:57;;;;;;;4.47;4.13;;;;;21.40;100258.00;;;;2065932;28;20234;-55
2021/09/26 04:29:57;;;;;;;4.70;4.30;;;;;21.40;100259.00;;;;2057289;28;20680;-55
2021/09/26 04:30:58;;;;;;;5.33;4.93;;;;;21.40;100257.00;;;;2062198;28;20562;-55
2021/09/26 04:31:58;;;;;;;4.70;4.40;;;;;21.40;100268.00;;;;2069290;28;20309;-55
2021/09/26 04:32:59;;;;;;;4.83;4.43;;;;;21.40;100263.00;;;;2069349;28;20218;-55
2021/09/26 04:33:59;;;;;;;4.47;4.17;;;;;21.40;100264.00;;;;2069771;28;20214;-55
2021/09/26 04:35:00;;;;;;;4.60;4.20;;;;;21.40;100264.00;;;;2070357;28;21099;-55
2021/09/26 04:36:01;;;;;;;4.03;3.72;;;;;21.40;100266.00;;;;2070360;28;20329;-55
2021/09/26 04:37:03;;;;;;;4.80;4.43;;;;;21.40;100250.00;;;;2070237;28;20752;-55
2021/09/26 04:38:03;;;;;;;4.90;4.50;;;;;21.40;100268.00;;;;2069055;28;20875;-55
2021/09/26 04:39:04;;;;;;;4.20;3.90;;;;;21.40;100260.00;;;;2065015;28;20223;-56
2021/09/26 04:40:04;;;;;;;4.90;4.47;;;;;21.40;100261.00;;;;2062074;28;20642;-55
2021/09/26 04:41:05;;;;;;;4.40;4.10;;;;;21.40;100267.00;;;;2058503;28;20306;-55
2021/09/26 04:42:06;;;;;;;4.20;3.90;;;;;21.40;100272.00;;;;2062008;28;20636;-55
2021/09/26 04:43:07;;;;;;;4.30;3.95;;;;;21.40;100274.00;;;;2062433;28;20215;-55
2021/09/26 04:44:07;;;;;;;4.40;4.10;;;;;21.10;100267.00;;;;2061324;28;20207;-55
2021/09/26 04:45:09;;;;;;;4.33;4.00;;;;;21.40;100267.00;;;;2061486;28;20318;-55
2021/09/26 04:46:10;;;;;;;6.68;4.30;;;;;21.40;100264.00;;;;2062236;28;20240;-55
2021/09/26 04:47:10;;;;;;;5.07;4.57;;;;;21.40;100264.00;;;;2069489;28;20585;-55
2021/09/26 04:48:11;;;;;;;3.90;3.60;;;;;21.40;100268.00;;;;2070189;28;20225;-55
2021/09/26 04:49:11;;;;;;;4.27;3.97;;;;;21.40;100269.00;;;;2068640;28;20375;-56
2021/09/26 04:50:12;;;;;;;4.50;4.10;;;;;21.40;100269.00;;;;2069913;28;20825;-55
2021/09/26 04:51:12;;;;;;;4.30;4.00;;;;;21.40;100267.00;;;;2069492;28;20305;-55
2021/09/26 04:52:12;;;;;;;4.60;4.20;;;;;21.40;100265.00;;;;2069454;28;20225;-55
2021/09/26 04:53:13;;;;;;;4.43;4.10;;;;;21.40;100273.00;;;;2069300;28;20229;-55
2021/09/26 04:54:13;;;;;;;3.97;3.67;;;;;21.40;100262.00;;;;2069698;28;20225;-55
2021/09/26 04:55:14;;;;;;;3.93;3.63;;;;;21.40;100261.00;;;;2069983;28;20284;-55
2021/09/26 04:56:14;;;;;;;4.30;4.00;;;;;21.40;100262.00;;;;2069923;28;20215;-56
2021/09/26 04:57:14;;;;;;;4.10;3.80;;;;;21.40;100261.00;;;;2070015;28;20233;-55
2021/09/26 04:58:15;;;;;;;4.53;4.13;;;;;21.40;100264.00;;;;2070313;28;20697;-55
2021/09/26 04:59:17;;;;;;;4.20;3.90;;;;;21.40;100263.00;;;;2060805;28;20250;-55
2021/09/26 05:00:17;;;;;;;3.72;3.42;;;;;21.40;100255.00;;;;2060734;28;20215;-56
2021/09/26 05:01:18;;;;;;;4.20;3.90;;;;;21.40;100266.00;;;;2069174;28;20215;-55
2021/09/26 05:02:18;;;;;;;4.70;4.30;;;;;21.40;100260.00;;;;2070224;28;20260;-56
2021/09/26 05:03:18;;;;;;;4.63;4.30;;;;;21.40;100260.00;;;;2070405;28;20332;-56
2021/09/26 05:04:19;;;;;;;3.90;3.60;;;;;21.40;100260.00;;;;2070314;28;20218;-56
2021/09/26 05:05:19;;;;;;;4.13;3.77;;;;;21.40;100260.00;;;;2067985;28;20218;-56
2021/09/26 05:06:20;;;;;;;5.70;5.20;;;;;21.40;100260.00;;;;2062220;28;20317;-56
2021/09/26 05:07:20;;;;;;;4.30;3.90;;;;;21.40;100266.00;;;;2065860;28;20710;-56